Time;durP1;ratioP1;P1;durP2;ratioP2;P2;SDS_P1;SDS_P2;PMS_P1;PMS_P2;Temp;Humidity;BMP_temperature;BMP_pressure;BME280_temperature;BME280_humidity;BME280_pressure;Samples;Min_cycle;Max_cycle;Signal;HPM_P1;HPM_P2
2022/03/19 00:02:56;;;;;;;12.17;4.50;;;7.10;92.80;;;;;;10475920;28;20255;-75
2022/03/19 00:07:57;;;;;;;11.67;4.90;;;7.10;92.70;;;;;;10449191;28;20231;-75
2022/03/19 00:12:58;;;;;;;8.47;3.97;;;7.10;92.90;;;;;;10463103;28;20224;-74
2022/03/19 00:18:55;;;;;;;14.13;4.33;;;7.00;92.80;;;;;;10394307;28;20221;-75
2022/03/19 00:23:59;;;;;;;8.30;4.70;;;7.00;92.90;;;;;;10337924;28;20220;-75
2022/03/19 00:29:03;;;;;;;10.53;4.63;;;6.90;93.10;;;;;;10425507;28;20238;-75
2022/03/19 00:34:06;;;;;;;9.27;3.93;;;6.80;93.70;;;;;;10491080;28;20315;-75
2022/03/19 00:39:15;;;;;;;10.20;3.93;;;6.70;93.30;;;;;;10450241;28;20223;-75
2022/03/19 00:44:21;;;;;;;6.83;3.97;;;6.50;93.20;;;;;;10451738;28;20239;-76
2022/03/19 01:13:42;;;;;;;8.87;4.00;;;6.10;93.70;;;;;;10531893;22;20698;-76
2022/03/19 01:18:43;;;;;;;10.10;4.00;;;6.00;93.90;;;;;;10477393;28;20225;-76
2022/03/19 01:23:43;;;;;;;8.67;3.80;;;6.00;94.00;;;;;;10494790;28;20217;-74
2022/03/19 01:28:44;;;;;;;9.73;4.27;;;5.90;94.10;;;;;;10495656;28;20236;-74
2022/03/19 01:33:45;;;;;;;7.90;3.80;;;5.90;94.40;;;;;;10475303;28;20337;-73
2022/03/19 01:38:45;;;;;;;10.53;3.97;;;5.90;94.40;;;;;;10470627;28;20256;-74
2022/03/19 01:43:46;;;;;;;7.60;3.90;;;5.90;94.50;;;;;;10476442;28;20226;-74
2022/03/19 01:48:47;;;;;;;7.83;3.80;;;5.80;94.60;;;;;;10475725;28;20221;-74
2022/03/19 01:53:47;;;;;;;7.93;3.80;;;5.80;94.80;;;;;;10474655;28;20235;-73
2022/03/19 01:58:48;;;;;;;7.93;3.53;;;5.80;95.00;;;;;;10492430;28;20230;-73
2022/03/19 02:03:49;;;;;;;8.60;4.17;;;5.70;95.20;;;;;;10490498;28;20210;-74
2022/03/19 02:08:50;;;;;;;7.93;3.70;;;5.70;95.40;;;;;;10492260;28;20229;-74
2022/03/19 02:13:50;;;;;;;7.47;4.10;;;5.60;95.70;;;;;;10491285;28;20239;-74
2022/03/19 02:18:51;;;;;;;11.83;4.00;;;5.50;96.20;;;;;;10491617;28;20217;-73
2022/03/19 02:29:19;;;;;;;11.40;4.40;;;5.50;96.30;;;;;;10451007;28;20716;-73
2022/03/19 02:34:21;;;;;;;10.87;4.30;;;5.40;96.60;;;;;;10473779;28;20231;-75
2022/03/19 02:39:33;;;;;;;9.70;3.87;;;5.40;96.90;;;;;;10492206;28;20219;-74
2022/03/19 02:44:41;;;;;;;7.60;4.20;;;5.40;97.20;;;;;;10470509;28;20221;-73
2022/03/19 03:06:50;;;;;;;8.47;3.97;;;5.30;98.60;;;;;;10521146;22;20602;-75
2022/03/19 03:11:53;;;;;;;11.07;3.70;;;5.30;98.90;;;;;;10501283;28;20236;-73
2022/03/19 03:17:01;;;;;;;8.00;4.00;;;5.20;99.10;;;;;;10513861;28;20256;-73
2022/03/19 03:22:01;;;;;;;8.93;4.10;;;5.20;99.60;;;;;;10506163;28;20276;-73
2022/03/19 03:27:02;;;;;;;5.17;3.77;;;5.20;99.80;;;;;;10523309;28;20405;-73
2022/03/19 03:32:04;;;;;;;8.03;3.80;;;5.10;99.90;;;;;;10500421;28;20234;-73
2022/03/19 03:37:08;;;;;;;7.03;4.10;;;5.10;99.90;;;;;;10529043;28;20642;-73
2022/03/19 03:42:09;;;;;;;9.27;3.87;;;5.10;99.90;;;;;;10504581;28;20340;-74
2022/03/19 03:47:09;;;;;;;7.80;3.53;;;5.00;99.90;;;;;;10522949;28;20346;-73
2022/03/19 03:52:10;;;;;;;9.73;4.40;;;5.00;99.90;;;;;;10524020;28;20295;-74
2022/03/19 03:57:11;;;;;;;8.40;4.40;;;5.00;99.90;;;;;;10517653;28;20684;-73
2022/03/19 04:02:12;;;;;;;12.83;5.00;;;4.90;99.90;;;;;;10527537;28;20214;-73
2022/03/19 04:07:13;;;;;;;10.37;4.33;;;4.90;99.90;;;;;;10529625;28;20234;-73
2022/03/19 04:12:19;;;;;;;12.07;3.97;;;4.80;99.90;;;;;;10504923;28;20246;-75
2022/03/19 04:17:20;;;;;;;10.87;4.50;;;4.80;99.90;;;;;;10521205;28;20719;-73
2022/03/19 04:22:20;;;;;;;8.20;4.00;;;4.80;99.90;;;;;;10494728;28;20234;-73
2022/03/19 04:27:21;;;;;;;10.67;4.10;;;4.70;99.90;;;;;;10508354;28;20267;-73
2022/03/19 04:32:22;;;;;;;7.67;3.80;;;4.70;99.90;;;;;;10521007;28;20238;-73
2022/03/19 04:37:33;;;;;;;;;;;;;;;;;;;;;
2022/03/19 04:42:35;;;;;;;13.43;4.20;;;4.80;99.90;;;;;;10521642;28;20231;-73
2022/03/19 04:47:36;;;;;;;8.50;4.20;;;4.80;99.90;;;;;;10520436;28;20225;-74
2022/03/19 04:52:37;;;;;;;14.37;5.67;;;4.80;99.90;;;;;;10518282;28;20231;-74
2022/03/19 04:57:40;;;;;;;19.07;6.20;;;4.80;99.90;;;;;;10526606;28;20280;-73
2022/03/19 05:02:40;;;;;;;16.47;6.60;;;4.90;99.90;;;;;;10491276;28;20228;-72
2022/03/19 05:07:43;;;;;;;8.87;4.13;;;4.80;99.90;;;;;;10523562;28;20957;-74
2022/03/19 05:13:03;;;;;;;9.73;3.77;;;4.70;99.90;;;;;;10507941;28;20239;-74
2022/03/19 05:18:25;;;;;;;9.60;4.30;;;4.60;99.90;;;;;;10499262;28;20229;-73
2022/03/19 05:24:36;;;;;;;;;;;;;;;;;;;;;
2022/03/19 05:29:37;;;;;;;11.07;4.23;;;4.50;99.90;;;;;;10505181;28;20222;-73
2022/03/19 05:34:38;;;;;;;11.00;4.07;;;4.50;99.90;;;;;;10535283;28;20238;-72
2022/03/19 05:39:41;;;;;;;11.50;4.60;;;4.50;99.90;;;;;;10507286;28;20219;-74
2022/03/19 05:44:42;;;;;;;12.10;4.40;;;4.50;99.90;;;;;;10524114;28;20230;-73
2022/03/19 05:49:43;;;;;;;11.23;3.87;;;4.60;99.90;;;;;;10515634;28;20753;-72
2022/03/19 05:54:43;;;;;;;8.37;4.10;;;4.60;99.90;;;;;;10497581;28;20226;-73
2022/03/19 05:59:44;;;;;;;11.70;4.33;;;4.70;99.90;;;;;;10515124;28;20222;-73
2022/03/19 06:04:48;;;;;;;12.43;4.07;;;4.80;99.90;;;;;;10512092;28;20223;-75
2022/03/19 06:09:52;;;;;;;11.07;4.13;;;4.90;99.90;;;;;;10524531;28;20262;-73
2022/03/19 06:14:53;;;;;;;9.33;4.03;;;5.00;99.90;;;;;;10503706;28;20230;-73
2022/03/19 06:19:54;;;;;;;9.57;3.63;;;5.20;99.90;;;;;;10513072;28;20247;-74
2022/03/19 06:24:55;;;;;;;6.50;3.70;;;5.30;99.90;;;;;;10497621;28;20264;-73
2022/03/19 06:29:55;;;;;;;6.70;3.30;;;5.50;99.90;;;;;;10515251;28;21181;-73
2022/03/19 06:34:59;;;;;;;11.07;4.13;;;5.70;99.90;;;;;;10511641;28;20217;-73
2022/03/19 06:40:06;;;;;;;10.70;3.70;;;5.80;99.90;;;;;;10522234;28;20736;-73
2022/03/19 06:45:07;;;;;;;10.90;4.60;;;6.10;99.90;;;;;;10502825;28;20335;-73
2022/03/19 06:50:10;;;;;;;7.07;3.40;;;6.50;99.90;;;;;;10503896;28;20193;-74
2022/03/19 06:55:20;;;;;;;10.60;4.20;;;7.30;99.90;;;;;;10539805;28;20194;-73
2022/03/19 07:00:20;;;;;;;9.73;3.83;;;7.70;99.90;;;;;;10515515;28;20202;-72
2022/03/19 07:05:26;;;;;;;10.87;3.83;;;7.40;99.90;;;;;;10508674;28;20206;-73
2022/03/19 07:10:27;;;;;;;10.83;4.17;;;7.50;99.90;;;;;;10521239;28;20242;-74
2022/03/19 07:15:28;;;;;;;11.83;4.20;;;8.50;99.90;;;;;;10506772;28;20224;-75
2022/03/19 07:20:30;;;;;;;9.87;4.53;;;8.70;99.90;;;;;;10532667;28;20236;-74
2022/03/19 07:25:38;;;;;;;9.37;4.40;;;8.30;99.90;;;;;;10498075;28;20320;-73
2022/03/19 07:30:40;;;;;;;14.97;5.10;;;8.20;99.90;;;;;;10507474;28;20316;-75
2022/03/19 07:35:41;;;;;;;13.33;5.13;;;8.40;99.90;;;;;;10511372;28;20289;-73
2022/03/19 07:46:01;;;;;;;11.07;4.80;;;8.20;99.90;;;;;;10524694;28;20222;-73
2022/03/19 07:51:01;;;;;;;10.50;5.17;;;8.40;99.90;;;;;;10530482;28;20255;-74
2022/03/19 07:56:02;;;;;;;9.93;5.10;;;9.00;99.90;;;;;;10527692;28;20217;-73
2022/03/19 08:01:03;;;;;;;12.37;5.00;;;11.90;93.50;;;;;;10508479;28;20218;-77
2022/03/19 08:06:04;;;;;;;9.97;4.97;;;13.40;84.10;;;;;;10502797;28;20222;-74
2022/03/19 08:11:07;;;;;;;9.10;5.53;;;15.30;73.40;;;;;;10529910;28;20717;-71
2022/03/19 08:16:11;;;;;;;10.83;5.23;;;16.30;64.40;;;;;;10521533;28;20279;-75
2022/03/19 08:21:12;;;;;;;11.60;5.27;;;16.60;59.80;;;;;;10508332;28;20222;-76
2022/03/19 08:26:15;;;;;;;12.20;5.60;;;17.10;58.20;;;;;;10518296;28;20228;-76
2022/03/19 08:31:18;;;;;;;10.20;5.10;;;16.90;56.70;;;;;;10505394;28;20246;-75
2022/03/19 08:36:18;;;;;;;8.77;5.23;;;17.10;57.20;;;;;;10491683;28;20746;-74
2022/03/19 08:41:20;;;;;;;8.60;4.97;;;17.30;55.20;;;;;;10526053;28;20256;-74
2022/03/19 08:46:20;;;;;;;10.00;4.67;;;18.20;53.80;;;;;;10501683;28;20262;-75
2022/03/19 08:51:40;;;;;;;9.73;5.50;;;18.10;51.80;;;;;;10490966;28;20235;-75
2022/03/19 08:56:42;;;;;;;11.47;5.27;;;18.90;50.80;;;;;;10512147;28;20714;-73
2022/03/19 09:01:44;;;;;;;11.63;5.00;;;19.20;49.20;;;;;;10510746;28;20226;-71
2022/03/19 09:06:45;;;;;;;8.27;5.00;;;19.60;48.70;;;;;;10507542;28;20226;-75
2022/03/19 09:11:48;;;;;;;7.93;4.40;;;19.10;47.90;;;;;;10505684;28;20241;-74
2022/03/19 09:16:50;;;;;;;7.10;3.90;;;20.10;46.60;;;;;;10521460;28;20309;-74
2022/03/19 09:21:50;;;;;;;7.23;4.67;;;20.00;45.00;;;;;;10480589;28;20765;-73
2022/03/19 09:26:52;;;;;;;7.43;3.80;;;20.10;44.20;;;;;;10518966;28;20452;-78
2022/03/19 09:31:52;;;;;;;6.20;3.57;;;19.30;44.60;;;;;;10494667;28;20326;-72
2022/03/19 09:36:53;;;;;;;6.93;3.60;;;19.20;43.30;;;;;;10490006;28;20252;-73
2022/03/19 09:41:55;;;;;;;6.03;3.07;;;19.60;42.90;;;;;;10510068;28;20703;-73
2022/03/19 09:46:56;;;;;;;6.87;3.40;;;19.70;41.60;;;;;;10499868;28;20327;-73
2022/03/19 09:52:00;;;;;;;5.67;3.00;;;20.60;39.20;;;;;;10493429;28;20234;-74
2022/03/19 09:57:01;;;;;;;5.20;2.80;;;20.30;37.80;;;;;;10493973;28;20253;-73
2022/03/19 10:02:05;;;;;;;7.43;2.50;;;19.70;36.60;;;;;;10527389;28;20232;-75
2022/03/19 10:12:30;;;;;;;4.60;2.17;;;19.50;35.00;;;;;;10507407;28;20241;-74
2022/03/19 10:17:39;;;;;;;5.13;2.10;;;19.80;34.50;;;;;;10507743;28;20672;-73
2022/03/19 10:22:45;;;;;;;5.33;2.30;;;20.70;33.20;;;;;;10503276;28;20240;-72
2022/03/19 10:27:46;;;;;;;5.17;2.50;;;20.10;33.20;;;;;;10492093;28;20250;-73
2022/03/19 10:32:51;;;;;;;8.40;2.80;;;21.50;33.30;;;;;;10503668;28;20253;-72
2022/03/19 10:37:53;;;;;;;5.57;2.70;;;22.10;34.20;;;;;;10522251;28;20219;-71
2022/03/19 10:42:57;;;;;;;5.17;2.50;;;21.70;34.10;;;;;;10516832;28;20218;-75
2022/03/19 10:48:02;;;;;;;5.40;2.73;;;22.40;32.70;;;;;;10517417;28;20228;-72
2022/03/19 10:53:03;;;;;;;5.27;2.53;;;22.20;32.90;;;;;;10516354;28;20781;-72
2022/03/19 10:58:03;;;;;;;3.80;2.47;;;21.70;33.40;;;;;;10518070;28;20226;-72
2022/03/19 11:03:12;;;;;;;6.17;2.80;;;22.50;32.50;;;;;;10525663;28;20234;-73
2022/03/19 11:08:13;;;;;;;3.40;2.30;;;23.20;33.10;;;;;;10530518;28;20228;-72
2022/03/19 11:13:20;;;;;;;5.23;3.00;;;24.20;31.30;;;;;;10524555;28;20648;-72
2022/03/19 11:18:21;;;;;;;7.27;3.10;;;22.80;32.00;;;;;;10515176;28;20268;-72
2022/03/19 11:23:27;;;;;;;4.43;2.97;;;23.30;33.00;;;;;;10531891;28;20276;-73
2022/03/19 11:28:27;;;;;;;4.13;2.50;;;22.80;32.40;;;;;;10509380;28;20238;-72
2022/03/19 11:33:32;;;;;;;8.30;3.17;;;20.70;35.30;;;;;;10532796;28;20229;-72
2022/03/19 11:38:38;;;;;;;4.53;2.70;;;18.30;39.70;;;;;;10535023;28;20266;-71
2022/03/19 11:43:39;;;;;;;4.67;2.90;;;16.40;42.30;;;;;;10511585;28;20215;-72
2022/03/19 11:48:43;;;;;;;6.23;3.07;;;15.70;44.30;;;;;;10516767;28;20681;-71
2022/03/19 11:53:51;;;;;;;3.83;2.30;;;15.00;43.70;;;;;;10536490;28;20227;-72
2022/03/19 11:58:52;;;;;;;4.37;2.77;;;15.00;44.50;;;;;;10536449;28;20296;-72
2022/03/19 12:04:05;;;;;;;3.10;1.87;;;14.80;43.30;;;;;;10538194;28;20364;-71
2022/03/19 12:09:06;;;;;;;3.23;2.00;;;14.90;42.40;;;;;;10527615;28;20223;-71
2022/03/19 12:14:21;;;;;;;3.40;1.77;;;14.60;42.10;;;;;;10531513;28;20226;-72
2022/03/19 12:19:49;;;;;;;4.07;1.80;;;14.40;43.20;;;;;;10520836;28;20226;-72
2022/03/19 12:24:52;;;;;;;1.90;1.40;;;14.40;40.40;;;;;;10533591;28;20234;-72
2022/03/19 12:29:56;;;;;;;4.43;1.77;;;14.40;37.80;;;;;;10526945;28;20274;-72
2022/03/19 12:34:58;;;;;;;3.60;1.60;;;14.30;39.80;;;;;;10536936;28;20248;-72
2022/03/19 12:40:00;;;;;;;6.07;2.10;;;14.00;38.60;;;;;;10514648;28;20237;-72
2022/03/19 12:45:03;;;;;;;2.63;1.57;;;14.00;40.60;;;;;;10518359;28;20226;-72
2022/03/19 12:50:07;;;;;;;2.93;1.30;;;14.00;41.00;;;;;;10516505;28;20226;-72
2022/03/19 12:55:18;;;;;;;7.60;1.20;;;13.90;38.20;;;;;;10524557;28;20184;-72
2022/03/19 13:00:19;;;;;;;2.20;1.23;;;13.80;35.60;;;;;;10525439;28;20215;-72
2022/03/19 13:05:20;;;;;;;3.30;1.90;;;13.80;36.20;;;;;;10528914;28;20214;-72
2022/03/19 13:10:21;;;;;;;2.60;1.53;;;13.70;36.80;;;;;;10515161;28;20199;-72
2022/03/19 13:15:22;;;;;;;4.23;1.60;;;13.60;39.40;;;;;;10533168;28;20557;-72
2022/03/19 13:20:23;;;;;;;2.37;1.40;;;13.50;39.50;;;;;;10525953;28;20182;-72
2022/03/19 13:25:31;;;;;;;4.13;1.73;;;13.50;39.90;;;;;;10515037;28;20230;-71
2022/03/19 13:30:32;;;;;;;4.63;1.20;;;13.30;40.80;;;;;;10507202;28;20234;-72
2022/03/19 13:35:40;;;;;;;2.80;1.40;;;13.30;39.30;;;;;;10526334;28;20244;-71
2022/03/19 13:40:41;;;;;;;3.87;1.80;;;13.30;38.00;;;;;;10503651;28;20641;-71
2022/03/19 13:45:42;;;;;;;2.57;1.47;;;13.30;39.30;;;;;;10525587;28;20222;-71
2022/03/19 13:50:57;;;;;;;3.50;1.83;;;13.40;40.60;;;;;;10525598;28;20222;-71
2022/03/19 13:55:59;;;;;;;3.60;1.97;;;13.40;39.50;;;;;;10531253;28;20218;-71
2022/03/19 14:01:11;;;;;;;3.27;1.60;;;13.20;39.10;;;;;;10516822;28;20219;-71
2022/03/19 14:06:12;;;;;;;4.63;1.87;;;12.90;40.90;;;;;;10509651;28;20746;-72
2022/03/19 14:11:13;;;;;;;6.97;1.73;;;12.80;41.30;;;;;;10516312;28;20238;-71
2022/03/19 14:16:15;;;;;;;5.10;2.30;;;12.90;41.40;;;;;;10526977;28;20215;-72
2022/03/19 14:21:16;;;;;;;3.57;1.60;;;12.70;41.50;;;;;;10520548;28;20222;-72
2022/03/19 14:26:17;;;;;;;3.93;2.40;;;12.60;41.50;;;;;;10505481;28;20229;-72
2022/03/19 14:31:18;;;;;;;3.47;2.07;;;12.50;41.80;;;;;;10523253;28;20226;-71
2022/03/19 14:36:19;;;;;;;6.60;2.20;;;12.50;42.20;;;;;;10504991;28;20614;-72
2022/03/19 14:41:20;;;;;;;2.13;1.37;;;12.30;42.30;;;;;;10512987;28;20222;-72
2022/03/19 14:46:24;;;;;;;4.67;1.53;;;12.40;43.00;;;;;;10521830;28;20739;-71
2022/03/19 14:51:25;;;;;;;4.20;1.73;;;12.50;42.90;;;;;;10500832;28;20250;-71
2022/03/19 14:56:26;;;;;;;2.57;1.17;;;12.50;40.50;;;;;;10522229;28;20249;-71
2022/03/19 15:01:29;;;;;;;6.00;1.37;;;12.30;40.60;;;;;;10519070;28;20225;-71
2022/03/19 15:06:29;;;;;;;3.40;1.40;;;11.90;40.50;;;;;;10512030;28;20242;-72
2022/03/19 15:11:31;;;;;;;4.33;1.00;;;11.90;41.40;;;;;;10517014;28;20218;-72
2022/03/19 15:16:31;;;;;;;4.83;1.13;;;12.00;39.40;;;;;;10513344;28;20278;-73
2022/03/19 15:21:33;;;;;;;2.93;1.00;;;12.00;38.80;;;;;;10530804;28;20780;-72
2022/03/19 15:26:34;;;;;;;6.00;1.90;;;12.00;39.60;;;;;;10531159;28;20591;-72
2022/03/19 15:31:34;;;;;;;7.27;2.10;;;12.00;41.00;;;;;;10530155;28;20223;-72
2022/03/19 15:36:36;;;;;;;7.03;1.87;;;11.70;40.90;;;;;;10537868;28;20272;-72
2022/03/19 15:41:37;;;;;;;5.10;1.80;;;11.60;41.90;;;;;;10513359;28;20249;-72
2022/03/19 15:46:38;;;;;;;3.20;1.00;;;11.40;42.10;;;;;;10524953;28;20720;-71
2022/03/19 15:51:42;;;;;;;2.83;0.93;;;11.20;42.10;;;;;;10519353;28;20262;-72
2022/03/19 15:56:42;;;;;;;4.60;1.53;;;11.40;42.10;;;;;;10545435;28;20227;-71
2022/03/19 16:01:43;;;;;;;4.47;1.47;;;11.50;45.00;;;;;;10524641;28;20679;-71
2022/03/19 16:06:44;;;;;;;3.27;1.13;;;11.00;48.40;;;;;;10523452;28;20231;-72
2022/03/19 16:11:45;;;;;;;5.93;1.40;;;10.70;46.20;;;;;;10527425;28;20235;-71
2022/03/19 16:16:46;;;;;;;6.80;1.87;;;10.50;48.30;;;;;;10514368;28;20300;-70
2022/03/19 16:21:49;;;;;;;5.03;1.77;;;10.40;50.70;;;;;;10528646;28;20564;-71
2022/03/19 16:26:50;;;;;;;3.10;1.73;;;10.20;51.00;;;;;;10526157;28;20232;-71
2022/03/19 16:31:50;;;;;;;3.77;1.90;;;10.20;51.30;;;;;;10530165;28;20222;-71
2022/03/19 16:36:53;;;;;;;4.60;2.30;;;10.20;52.00;;;;;;10510260;28;20221;-72
2022/03/19 16:41:54;;;;;;;3.80;1.70;;;10.10;53.90;;;;;;10518311;28;20218;-71
2022/03/19 16:46:54;;;;;;;4.23;1.63;;;10.00;55.40;;;;;;10539384;28;20221;-71
2022/03/19 16:51:55;;;;;;;5.20;2.17;;;9.80;56.70;;;;;;10529681;28;20234;-72
2022/03/19 16:56:55;;;;;;;5.63;2.03;;;9.70;57.10;;;;;;10536299;28;20213;-72
2022/03/19 17:01:56;;;;;;;4.93;1.90;;;9.50;57.90;;;;;;10527311;28;20237;-72
2022/03/19 17:07:01;;;;;;;4.53;2.00;;;9.40;58.70;;;;;;10525076;28;20254;-71
2022/03/19 17:12:02;;;;;;;7.07;4.17;;;9.30;59.70;;;;;;10530753;28;20711;-71
2022/03/19 17:17:03;;;;;;;11.00;4.90;;;9.10;59.90;;;;;;10527654;28;20216;-72
2022/03/19 17:22:04;;;;;;;8.93;5.63;;;9.00;60.50;;;;;;10528589;28;20375;-72
2022/03/19 17:27:04;;;;;;;11.60;5.97;;;9.00;61.30;;;;;;10510204;28;20221;-72
2022/03/19 17:32:05;;;;;;;6.93;5.30;;;8.90;62.00;;;;;;10518779;28;20347;-71
2022/03/19 17:37:06;;;;;;;10.10;6.33;;;8.90;62.60;;;;;;10530431;28;20255;-71
2022/03/19 17:42:07;;;;;;;10.03;6.30;;;8.80;63.30;;;;;;10528649;28;20227;-72
2022/03/19 17:47:10;;;;;;;9.60;5.90;;;8.70;64.00;;;;;;10525331;28;20218;-71
2022/03/19 17:52:11;;;;;;;7.50;5.40;;;8.60;64.70;;;;;;10528480;28;20317;-72
2022/03/19 17:57:12;;;;;;;12.73;6.47;;;8.60;65.20;;;;;;10504541;28;20308;-72
2022/03/19 18:02:12;;;;;;;10.10;6.80;;;8.50;65.60;;;;;;10525978;28;20231;-72
2022/03/19 18:07:16;;;;;;;9.90;6.40;;;8.40;66.00;;;;;;10529471;28;20746;-72
2022/03/19 18:12:17;;;;;;;13.50;7.87;;;8.40;66.50;;;;;;10530404;28;20233;-71
2022/03/19 18:17:17;;;;;;;10.47;7.00;;;8.40;66.70;;;;;;10518492;28;20228;-71
2022/03/19 18:22:18;;;;;;;12.30;7.90;;;8.50;67.10;;;;;;10532016;28;20275;-71
2022/03/19 18:27:19;;;;;;;13.20;7.93;;;8.50;66.90;;;;;;10541641;28;20245;-72
2022/03/19 18:32:19;;;;;;;13.13;9.57;;;8.50;70.20;;;;;;10527800;28;20226;-72
2022/03/19 18:37:21;;;;;;;15.60;10.17;;;8.20;74.20;;;;;;10523843;28;20221;-71
2022/03/19 18:42:22;;;;;;;15.20;11.77;;;8.00;77.50;;;;;;10506279;28;20275;-71
2022/03/19 18:47:23;;;;;;;16.37;12.87;;;7.90;78.80;;;;;;10502074;28;20572;-71
2022/03/19 18:52:23;;;;;;;18.23;13.10;;;7.70;81.80;;;;;;10509716;28;20222;-72
2022/03/19 18:57:27;;;;;;;19.03;14.23;;;7.50;83.60;;;;;;10534308;28;20669;-72
2022/03/19 19:02:27;;;;;;;20.00;15.03;;;7.50;82.40;;;;;;10501321;28;20219;-71
2022/03/19 19:07:31;;;;;;;21.53;14.97;;;7.60;81.60;;;;;;10523103;28;20223;-71
2022/03/19 19:12:38;;;;;;;20.67;15.53;;;7.60;82.00;;;;;;10517058;28;20380;-71
2022/03/19 19:17:39;;;;;;;22.17;15.80;;;7.50;84.00;;;;;;10517516;28;20227;-72
2022/03/19 19:22:39;;;;;;;19.77;15.27;;;7.40;85.40;;;;;;10522938;28;20218;-72
2022/03/19 19:27:40;;;;;;;20.43;17.03;;;7.30;87.30;;;;;;10507087;28;20222;-73
2022/03/19 19:32:41;;;;;;;21.53;16.13;;;7.20;89.40;;;;;;10516342;28;20225;-71
2022/03/19 19:37:42;;;;;;;22.60;16.50;;;7.10;90.70;;;;;;10527724;28;20215;-72
2022/03/19 19:42:42;;;;;;;23.10;17.07;;;7.00;91.70;;;;;;10519255;28;20589;-72
2022/03/19 19:47:43;;;;;;;24.03;16.90;;;7.00;92.90;;;;;;10524661;28;20592;-72
2022/03/19 19:52:44;;;;;;;22.63;17.03;;;6.90;94.00;;;;;;10531457;28;20264;-72
2022/03/19 19:58:02;;;;;;;22.43;16.93;;;6.90;95.30;;;;;;10524887;28;20256;-72
2022/03/19 20:03:17;;;;;;;22.90;16.70;;;7.00;96.40;;;;;;10517396;28;20226;-72
2022/03/19 20:08:18;;;;;;;21.63;16.50;;;6.90;97.20;;;;;;10527129;28;20223;-72
2022/03/19 20:13:19;;;;;;;19.90;15.40;;;6.90;98.10;;;;;;10523744;28;20701;-72
2022/03/19 20:18:21;;;;;;;18.93;14.37;;;6.80;98.40;;;;;;10526720;28;20218;-72
2022/03/19 20:23:22;;;;;;;22.30;15.83;;;6.80;98.20;;;;;;10505064;28;20235;-71
2022/03/19 20:28:23;;;;;;;20.63;14.87;;;6.80;97.80;;;;;;10530698;28;20296;-71
2022/03/19 20:33:23;;;;;;;18.97;14.47;;;6.80;97.70;;;;;;10528058;28;20313;-71
2022/03/19 20:38:24;;;;;;;19.40;14.10;;;6.90;97.60;;;;;;10511467;28;20708;-72
2022/03/19 20:43:26;;;;;;;17.70;13.60;;;7.00;97.10;;;;;;10528797;28;20320;-72
2022/03/19 20:48:27;;;;;;;19.17;13.87;;;7.00;96.40;;;;;;10524765;28;20223;-72
2022/03/19 20:53:28;;;;;;;17.67;14.50;;;7.00;96.00;;;;;;10532721;28;20244;-72
2022/03/19 20:58:30;;;;;;;19.30;13.90;;;7.10;95.80;;;;;;10530783;28;20219;-72
2022/03/19 21:03:30;;;;;;;18.27;14.23;;;7.10;95.20;;;;;;10529179;28;20697;-72
2022/03/19 21:08:32;;;;;;;19.77;14.20;;;7.00;95.10;;;;;;10527328;28;20230;-73
2022/03/19 21:13:33;;;;;;;17.67;13.13;;;7.00;94.90;;;;;;10521309;28;20233;-71
2022/03/19 21:18:33;;;;;;;17.80;14.00;;;7.00;94.70;;;;;;10509734;28;20230;-72
2022/03/19 21:23:34;;;;;;;17.73;14.10;;;7.00;94.30;;;;;;10524025;28;20222;-72
2022/03/19 21:28:36;;;;;;;17.63;13.60;;;7.00;94.00;;;;;;10517773;28;20436;-73
2022/03/19 21:33:37;;;;;;;19.97;14.10;;;6.90;93.80;;;;;;10508913;28;20228;-73
2022/03/19 21:38:38;;;;;;;20.73;13.93;;;6.80;93.60;;;;;;10500502;28;20219;-73
2022/03/19 21:43:38;;;;;;;19.17;13.83;;;6.80;93.70;;;;;;10526580;28;20222;-71
2022/03/19 21:48:39;;;;;;;22.33;14.30;;;6.70;93.60;;;;;;10528441;28;20226;-72
2022/03/19 21:53:40;;;;;;;17.00;13.97;;;6.70;93.30;;;;;;10531754;28;20321;-71
2022/03/19 21:58:41;;;;;;;23.87;14.30;;;6.60;93.10;;;;;;10514339;28;20222;-72
2022/03/19 22:03:42;;;;;;;19.13;13.73;;;6.60;93.20;;;;;;10501628;28;20227;-72
2022/03/19 22:08:43;;;;;;;20.10;14.27;;;6.60;92.60;;;;;;10529549;28;20232;-72
2022/03/19 22:13:43;;;;;;;20.83;14.50;;;6.60;92.50;;;;;;10509745;28;20681;-71
2022/03/19 22:18:44;;;;;;;19.67;13.70;;;6.60;92.00;;;;;;10531252;28;20221;-71
2022/03/19 22:23:45;;;;;;;20.83;14.23;;;6.50;91.70;;;;;;10523770;28;20218;-72
2022/03/19 22:28:48;;;;;;;18.33;13.53;;;6.50;91.10;;;;;;10509218;28;20378;-72
2022/03/19 22:33:49;;;;;;;20.83;13.47;;;6.50;90.90;;;;;;10506924;28;20234;-73
2022/03/19 22:38:49;;;;;;;17.10;12.80;;;6.40;90.70;;;;;;10504989;28;20600;-72
2022/03/19 22:43:50;;;;;;;18.23;12.93;;;6.40;90.40;;;;;;10524459;28;20225;-72
2022/03/19 22:48:51;;;;;;;15.27;12.83;;;6.40;90.00;;;;;;10506424;28;20227;-73
2022/03/19 22:53:52;;;;;;;16.90;13.10;;;6.30;89.80;;;;;;10525934;28;20313;-72
2022/03/19 22:58:56;;;;;;;18.40;13.47;;;6.30;89.80;;;;;;10509318;28;20216;-72
2022/03/19 23:03:57;;;;;;;19.00;13.27;;;6.20;88.90;;;;;;10521223;28;20244;-72
2022/03/19 23:09:05;;;;;;;17.77;13.07;;;6.20;88.90;;;;;;10505100;28;20276;-73
2022/03/19 23:14:14;;;;;;;16.97;12.87;;;6.10;88.80;;;;;;10531432;28;20218;-72
2022/03/19 23:19:15;;;;;;;18.10;13.33;;;6.00;88.50;;;;;;10532490;28;20242;-72
2022/03/19 23:24:17;;;;;;;22.97;13.27;;;6.00;88.30;;;;;;10529485;28;20249;-72
2022/03/19 23:29:18;;;;;;;20.07;13.47;;;5.90;88.00;;;;;;10518858;28;20221;-73
2022/03/19 23:34:19;;;;;;;15.67;12.20;;;5.90;87.80;;;;;;10513767;28;20215;-72
2022/03/19 23:39:20;;;;;;;19.07;13.57;;;5.90;87.30;;;;;;10514000;28;20221;-71
2022/03/19 23:44:20;;;;;;;17.57;12.43;;;5.80;87.20;;;;;;10530571;28;20226;-71
2022/03/19 23:49:21;;;;;;;19.67;12.80;;;5.70;87.00;;;;;;10529577;28;20295;-73
2022/03/19 23:54:22;;;;;;;16.93;11.93;;;5.70;86.80;;;;;;10534658;28;20222;-71
2022/03/19 23:59:22;;;;;;;17.00;12.50;;;5.70;86.20;;;;;;10530294;28;20219;-72
